Aeroporto :
LOGIN :

Iscrizione | Disclaimer

   EN    FR    IT 

 










Sommario :    VFR   VFR Marginale   IFR   IFR Intensivo   IFR Molto Intensivo
Visibilità : 
Base nubi : 
>= 8 km
>= 3000ft
5 / 8 km
1000 / 3000 ft
1500m / 5 km
500 / 1000 ft
800 / 1500m
200 / 500 ft
< 800m
< 200 ft
Simboli :   Temporali  Nebbia  Neve Forte  Precipitazioni Forti  Vento > 20 kt
SIGMETs :   Varie  Temporali  Ghiacco  Turbolenza  Onda orograficha  Ceneri Vulcaniche






- Altitudine del aeroporto : 138 ft
- Codice IATA : BIO


LEBB - Bilbao

ULTIMO METAR :
  • 210800Z 12007KT 080V150 9999 FEW050 11/05 Q1004 NOSIG

METARs OBSOLETI :
  • 210730Z 14003KT 100V190 9999 FEW050 11/04 Q1004 NOSIG
  • 210700Z 17006KT 120V210 9999 FEW050 11/04 Q1004 NOSIG
  • 210630Z 18004KT 120V220 9999 FEW062 11/04 Q1004 NOSIG
  • 210600Z 16004KT 080V200 9999 FEW062 10/04 Q1003 NOSIG
  • 210530Z 11007KT 070V140 9999 FEW062 11/05 Q1003 NOSIG

TAF TAF LEBB
Valido dal 21 a 06 ore il 22 a 06 ore UTC


210500Z 2106/2206 16009KT CAVOK TX14/2114Z TN09/2206Z
PROB40
TEMPO 2106/2116 18015G25KT



MetMap, La meteo Aeronautica in un colpo d'occhio ! - Copyright ORBIFLY Dicembre 2007 - Disclaimer

ORBIFLY MET'MAP TEAM :

Programmazione e sviluppo : Alexandra Zaïnal
Concezione e sviluppo : Baudouin d'Aumeries
Co-Programmazione e sviluppo : Marc-Olivier Méhu
Supporto tecnico e logistico : Manuel Goepfert
Aiuto per la traduzione : Arnaldo La Scala

Contatto : metmap@orbifly.com




FONTI E CREDITI :

   NOAA